createdAt,value
2018-06-28T00:02:26.204Z,101881.33
2018-06-28T00:04:55.304Z,101877.52
2018-06-28T00:07:24.436Z,101879.27
2018-06-28T00:09:53.577Z,101880.64
2018-06-28T00:12:22.716Z,101887.56
2018-06-28T00:14:51.848Z,101882.38
2018-06-28T00:17:20.975Z,101886.09
2018-06-28T00:19:50.108Z,101878.97
2018-06-28T00:22:19.262Z,101889.94
2018-06-28T00:24:48.701Z,101882.14
2018-06-28T00:27:17.841Z,101874.91
2018-06-28T00:29:46.979Z,101884.02
2018-06-28T00:32:16.098Z,101888.02
2018-06-28T00:34:45.225Z,101889.92
2018-06-28T00:37:14.376Z,101895.47
2018-06-28T00:39:43.489Z,101885.61
2018-06-28T00:42:12.618Z,101892.98
2018-06-28T00:44:41.733Z,101888.16
2018-06-28T00:47:10.869Z,101891.70
2018-06-28T00:49:39.986Z,101895.95
2018-06-28T00:52:09.133Z,101895.88
2018-06-28T00:54:38.248Z,101893.75
2018-06-28T00:57:07.457Z,101897.30
2018-06-28T00:59:36.568Z,101889.59
2018-06-28T01:02:05.736Z,101892.50
2018-06-28T01:04:34.858Z,101891.63
2018-06-28T01:07:03.983Z,101890.34
2018-06-28T01:09:33.107Z,101893.34
2018-06-28T01:12:02.250Z,101890.41
2018-06-28T01:14:31.685Z,101889.12
2018-06-28T01:17:00.811Z,101888.80
2018-06-28T01:19:29.937Z,101891.08
2018-06-28T01:21:59.065Z,101890.23
2018-06-28T01:24:28.173Z,101891.53
2018-06-28T01:26:57.298Z,101891.53
2018-06-28T01:29:26.414Z,101887.18
2018-06-28T01:31:55.524Z,101891.85
2018-06-28T01:34:24.661Z,101890.08
2018-06-28T01:36:53.786Z,101888.34
2018-06-28T01:39:22.957Z,101895.69
2018-06-28T01:42:03.326Z,101891.95
2018-06-28T01:44:32.429Z,101893.69
2018-06-28T01:47:01.544Z,101884.98
2018-06-28T01:49:30.674Z,101882.41
2018-06-28T01:51:59.814Z,101887.95
2018-06-28T01:54:28.971Z,101881.84
2018-06-28T01:56:58.109Z,101879.62
2018-06-28T01:59:27.253Z,101872.79
2018-06-28T02:01:56.369Z,101875.23
2018-06-28T02:04:25.521Z,101874.30
2018-06-28T02:06:54.647Z,101873.78
2018-06-28T02:09:23.786Z,101873.69
2018-06-28T02:11:52.905Z,101862.55
2018-06-28T02:14:22.076Z,101864.64
2018-06-28T02:16:51.262Z,101868.44
2018-06-28T02:19:20.425Z,101870.00
2018-06-28T02:21:49.614Z,101866.45
2018-06-28T02:24:18.756Z,101877.66
2018-06-28T02:26:47.874Z,101871.22
2018-06-28T02:29:16.992Z,101874.52
2018-06-28T02:31:46.109Z,101868.31
2018-06-28T02:34:15.336Z,101864.91
2018-06-28T02:36:44.444Z,101872.67
2018-06-28T02:39:13.555Z,101868.31
2018-06-28T02:41:42.697Z,101865.75
2018-06-28T02:44:11.798Z,101864.91
2018-06-28T02:46:40.906Z,101868.02
2018-06-28T02:49:10.033Z,101868.61
2018-06-28T02:51:39.277Z,101871.25
2018-06-28T02:54:08.773Z,101866.63
2018-06-28T02:56:37.906Z,101867.53
2018-06-28T02:59:07.063Z,101864.47
2018-06-28T03:01:37.191Z,101862.80
2018-06-28T03:04:06.350Z,101865.99
2018-06-28T03:06:35.488Z,101865.70
2018-06-28T03:09:07.175Z,101859.20
2018-06-28T03:11:36.299Z,101868.18
2018-06-28T03:14:05.628Z,101865.86
2018-06-28T03:16:34.852Z,101867.95
2018-06-28T03:19:04.047Z,101864.47
2018-06-28T03:21:33.189Z,101866.17
2018-06-28T03:24:02.298Z,101871.81
2018-06-28T03:26:31.554Z,101872.23
2018-06-28T03:29:00.908Z,101877.41
2018-06-28T03:31:30.222Z,101880.44
2018-06-28T03:33:59.338Z,101879.12
2018-06-28T03:36:28.495Z,101881.31
2018-06-28T03:38:57.610Z,101875.81
2018-06-28T03:41:26.752Z,101881.34
2018-06-28T03:43:55.889Z,101876.72
2018-06-28T03:46:24.993Z,101878.84
2018-06-28T03:48:54.132Z,101878.42
2018-06-28T03:51:23.265Z,101872.33
2018-06-28T03:53:52.857Z,101871.95
2018-06-28T03:56:21.952Z,101877.06
2018-06-28T03:58:51.072Z,101871.29
2018-06-28T04:01:20.160Z,101879.02
2018-06-28T04:03:49.280Z,101879.33
2018-06-28T04:06:18.393Z,101875.20
2018-06-28T04:08:47.510Z,101868.77
2018-06-28T04:11:16.585Z,101873.13
2018-06-28T04:13:45.698Z,101878.95
2018-06-28T04:16:14.781Z,101882.74
2018-06-28T04:18:44.085Z,101879.75
2018-06-28T04:21:13.230Z,101879.41
2018-06-28T04:23:42.346Z,101878.73
2018-06-28T04:26:11.505Z,101886.63
2018-06-28T04:28:40.625Z,101894.05
2018-06-28T04:31:09.709Z,101895.93
2018-06-28T04:33:38.829Z,101888.38
2018-06-28T04:36:08.562Z,101890.70
2018-06-28T04:38:37.664Z,101889.12
2018-06-28T04:41:06.791Z,101891.02
2018-06-28T04:43:35.976Z,101882.75
2018-06-28T04:46:05.089Z,101886.86
2018-06-28T04:48:34.192Z,101875.95
2018-06-28T04:51:03.292Z,101881.64
2018-06-28T04:53:32.485Z,101882.39
2018-06-28T04:56:01.590Z,101882.62
2018-06-28T04:58:30.673Z,101875.50
2018-06-28T05:00:59.784Z,101875.64
2018-06-28T05:03:28.872Z,101876.99
2018-06-28T05:05:57.975Z,101878.34
2018-06-28T05:08:27.161Z,101875.33
2018-06-28T05:10:56.265Z,101868.92
2018-06-28T05:13:25.345Z,101875.42
2018-06-28T05:15:54.449Z,101876.81
2018-06-28T05:18:23.537Z,101873.80
2018-06-28T05:20:52.644Z,101878.10
2018-06-28T05:23:21.759Z,101885.41
2018-06-28T05:25:50.837Z,101881.53
2018-06-28T05:28:19.921Z,101875.92
2018-06-28T05:30:49.033Z,101873.70
2018-06-28T05:33:18.117Z,101873.70
2018-06-28T05:35:47.225Z,101876.84
2018-06-28T05:38:16.554Z,101874.28
2018-06-28T05:40:45.662Z,101869.15
2018-06-28T05:43:14.738Z,101873.96
2018-06-28T05:45:43.845Z,101866.23
2018-06-28T05:48:12.929Z,101872.34
2018-06-28T05:50:42.048Z,101867.15
2018-06-28T05:53:11.118Z,101871.07
2018-06-28T05:55:40.516Z,101871.09
2018-06-28T05:58:09.602Z,101878.06
2018-06-28T06:00:38.745Z,101875.90
2018-06-28T06:03:08.085Z,101874.21
2018-06-28T06:05:37.201Z,101878.13
2018-06-28T06:08:06.310Z,101870.77
2018-06-28T06:10:35.408Z,101876.42
2018-06-28T06:13:04.516Z,101878.53
2018-06-28T06:15:33.609Z,101878.13
2018-06-28T06:18:02.708Z,101877.23
2018-06-28T06:20:31.805Z,101873.31
2018-06-28T06:23:00.910Z,101883.64
2018-06-28T06:25:29.993Z,101880.13
2018-06-28T06:27:59.096Z,101879.27
2018-06-28T06:30:28.181Z,101874.92
2018-06-28T06:32:57.286Z,101878.72
2018-06-28T06:35:26.409Z,101874.94
2018-06-28T06:37:55.504Z,101872.81
2018-06-28T06:40:24.589Z,101878.50
2018-06-28T06:42:53.720Z,101868.52
2018-06-28T06:45:23.677Z,101862.83
2018-06-28T06:47:53.718Z,101866.70
2018-06-28T06:50:22.933Z,101869.30
2018-06-28T06:52:52.033Z,101872.66
2018-06-28T06:55:21.251Z,101871.70
2018-06-28T06:57:50.737Z,101868.64
2018-06-28T07:00:19.851Z,101866.44
2018-06-28T07:02:49.077Z,101867.30
2018-06-28T07:05:18.304Z,101870.30
2018-06-28T07:07:47.513Z,101875.81
2018-06-28T07:10:16.656Z,101874.95
2018-06-28T07:12:45.723Z,101878.84
2018-06-28T07:15:15.560Z,101870.17
2018-06-28T07:17:44.672Z,101867.92
2018-06-28T07:20:13.770Z,101870.95
2018-06-28T07:22:42.881Z,101860.91
2018-06-28T07:25:11.974Z,101863.84
2018-06-28T07:27:41.052Z,101860.66
2018-06-28T07:30:10.156Z,101854.48
2018-06-28T07:32:39.403Z,101858.70
2018-06-28T07:35:08.396Z,101863.42
2018-06-28T07:37:37.461Z,101861.17
2018-06-28T07:40:06.581Z,101858.58
2018-06-28T07:42:35.708Z,101855.08
2018-06-28T07:45:05.011Z,101856.39
2018-06-28T07:47:34.102Z,101854.46
2018-06-28T07:50:03.241Z,101849.19
2018-06-28T07:52:32.373Z,101848.22
2018-06-28T07:55:01.501Z,101849.12
2018-06-28T07:57:30.592Z,101848.56
2018-06-28T07:59:59.700Z,101851.84
2018-06-28T08:02:29.677Z,101842.71
2018-06-28T08:04:58.789Z,101837.86
2018-06-28T08:07:28.033Z,101839.05
2018-06-28T08:09:57.148Z,101841.84
2018-06-28T08:12:26.241Z,101845.69
2018-06-28T08:14:55.361Z,101836.27
2018-06-28T08:17:24.461Z,101832.12
2018-06-28T08:19:53.616Z,101830.21
2018-06-28T08:22:22.701Z,101828.30
2018-06-28T08:24:51.812Z,101827.07
2018-06-28T08:27:20.933Z,101825.05
2018-06-28T08:29:50.020Z,101827.25
2018-06-28T08:32:19.190Z,101826.63
2018-06-28T08:34:48.236Z,101824.29
2018-06-28T08:37:17.341Z,101823.43
2018-06-28T08:39:46.420Z,101829.86
2018-06-28T08:42:15.520Z,101822.11
2018-06-28T08:44:44.608Z,101823.25
2018-06-28T08:47:13.757Z,101823.87
2018-06-28T08:49:43.120Z,101815.95
2018-06-28T08:52:12.320Z,101820.34
2018-06-28T08:54:41.485Z,101819.54
2018-06-28T08:57:10.765Z,101817.26
2018-06-28T08:59:40.043Z,101808.52
2018-06-28T09:02:09.420Z,101809.91
2018-06-28T09:04:38.556Z,101806.97
2018-06-28T09:07:07.844Z,101812.43
2018-06-28T09:09:36.922Z,101807.45
2018-06-28T09:12:06.153Z,101810.00
2018-06-28T09:14:35.312Z,101806.13
2018-06-28T09:17:04.508Z,101807.30
2018-06-28T09:19:33.717Z,101805.58
2018-06-28T09:22:02.953Z,101796.59
2018-06-28T09:24:32.113Z,101800.38
2018-06-28T09:27:01.477Z,101801.38
2018-06-28T09:29:30.720Z,101802.57
2018-06-28T09:32:00.018Z,101802.73
2018-06-28T09:34:29.422Z,101793.70
2018-06-28T09:36:58.749Z,101791.14
2018-06-28T09:39:27.956Z,101790.92
2018-06-28T09:41:57.077Z,101786.34
2018-06-28T09:44:26.184Z,101779.58
2018-06-28T09:46:55.261Z,101789.89
2018-06-28T09:49:24.356Z,101785.36
2018-06-28T09:51:53.431Z,101783.22
2018-06-28T09:54:22.549Z,101769.52
2018-06-28T09:56:51.637Z,101778.31
2018-06-28T09:59:21.498Z,101777.75
2018-06-28T10:01:50.624Z,101779.58
2018-06-28T10:04:19.723Z,101773.70
2018-06-28T10:06:49.862Z,101766.78
2018-06-28T10:09:19.051Z,101772.64
2018-06-28T10:11:48.137Z,101762.92
2018-06-28T10:14:17.246Z,101761.50
2018-06-28T10:16:47.143Z,101762.50
2018-06-28T10:19:18.299Z,101760.19
2018-06-28T10:21:48.805Z,101761.84
2018-06-28T10:24:19.989Z,101750.52
2018-06-28T10:26:49.077Z,101746.23
2018-06-28T10:29:18.215Z,101748.47
2018-06-28T10:31:48.571Z,101741.84
2018-06-28T10:34:20.015Z,101742.64
2018-06-28T10:36:50.389Z,101736.70
2018-06-28T10:39:20.459Z,101727.99
2018-06-28T10:41:50.642Z,101717.27
2018-06-28T10:44:19.810Z,101722.02
2018-06-28T10:46:48.889Z,101725.05
2018-06-28T10:49:19.190Z,101711.75
2018-06-28T10:51:49.696Z,101713.86
2018-06-28T10:54:20.497Z,101708.47
2018-06-28T10:56:50.481Z,101701.75
2018-06-28T10:59:20.681Z,101702.89
2018-06-28T11:01:51.587Z,101704.48
2018-06-28T11:04:21.490Z,101700.76
2018-06-28T11:06:52.204Z,101701.55
2018-06-28T11:09:22.531Z,101696.02
2018-06-28T11:11:51.718Z,101693.95
2018-06-28T11:14:20.800Z,101690.84
2018-06-28T11:16:49.902Z,101682.91
2018-06-28T11:19:19.068Z,101689.88
2018-06-28T11:21:48.173Z,101691.78
2018-06-28T11:24:17.281Z,101680.41
2018-06-28T11:26:46.397Z,101681.12
2018-06-28T11:29:15.477Z,101670.98
2018-06-28T11:31:44.583Z,101677.48
2018-06-28T11:34:13.648Z,101676.63
2018-06-28T11:36:42.744Z,101668.47
2018-06-28T11:39:13.552Z,101670.23
2018-06-28T11:41:43.992Z,101669.93
2018-06-28T11:44:14.365Z,101666.91
2018-06-28T11:46:43.545Z,101652.11
2018-06-28T11:49:12.659Z,101656.59
2018-06-28T11:51:42.093Z,101644.00
2018-06-28T11:54:11.394Z,101645.05
2018-06-28T11:56:41.797Z,101643.52
2018-06-28T11:59:12.230Z,101637.14
2018-06-28T12:01:42.010Z,101641.42
2018-06-28T12:04:13.094Z,101636.17
2018-06-28T12:06:43.265Z,101625.80
2018-06-28T12:09:14.029Z,101624.94
2018-06-28T12:11:44.211Z,101630.05
2018-06-28T12:14:15.251Z,101630.99
2018-06-28T12:16:45.880Z,101631.03
2018-06-28T12:19:16.162Z,101625.39
2018-06-28T12:21:46.363Z,101621.09
2018-06-28T12:24:16.541Z,101619.28
2018-06-28T12:26:47.224Z,101617.23
2018-06-28T12:29:18.266Z,101600.14
2018-06-28T12:31:48.537Z,101601.91
2018-06-28T12:34:18.786Z,101599.00
2018-06-28T12:36:47.972Z,101592.70
2018-06-28T12:39:17.118Z,101595.76
2018-06-28T12:41:46.125Z,101591.94
2018-06-28T12:44:15.216Z,101589.84
2018-06-28T12:47:54.537Z,101580.38
2018-06-28T12:50:23.608Z,101579.50
2018-06-28T12:52:57.843Z,101575.59
2018-06-28T12:55:27.737Z,101575.16
2018-06-28T12:57:57.935Z,101561.57
2018-06-28T13:00:27.017Z,101563.00
2018-06-28T13:02:56.103Z,101556.98
2018-06-28T13:05:25.213Z,101559.16
2018-06-28T13:07:54.300Z,101547.38
2018-06-28T13:10:23.404Z,101546.34
2018-06-28T13:12:52.500Z,101542.47
2018-06-28T13:15:21.600Z,101544.86
2018-06-28T13:17:50.688Z,101544.69
2018-06-28T13:20:19.840Z,101538.08
2018-06-28T13:22:48.897Z,101539.74
2018-06-28T13:25:17.997Z,101530.98
2018-06-28T13:27:47.084Z,101530.12
2018-06-28T13:30:16.186Z,101528.92
2018-06-28T13:32:45.300Z,101526.21
2018-06-28T13:35:14.412Z,101518.16
2018-06-28T13:37:43.508Z,101517.43
2018-06-28T13:40:12.620Z,101515.84
2018-06-28T13:42:41.704Z,101507.28
2018-06-28T13:45:10.805Z,101505.00
2018-06-28T13:47:39.889Z,101510.60
2018-06-28T13:50:08.992Z,101503.30
2018-06-28T13:52:38.400Z,101500.64
2018-06-28T13:55:07.512Z,101504.98
2018-06-28T13:57:36.639Z,101507.00
2018-06-28T14:00:05.841Z,101501.81
2018-06-28T14:02:34.929Z,101502.69
2018-06-28T14:05:04.052Z,101506.55
2018-06-28T14:07:33.140Z,101501.41
2018-06-28T14:10:02.206Z,101490.65
2018-06-28T14:12:31.317Z,101484.86
2018-06-28T14:15:00.376Z,101482.65
2018-06-28T14:17:29.545Z,101478.25
2018-06-28T14:19:58.616Z,101473.70
2018-06-28T14:22:27.713Z,101465.60
2018-06-28T14:24:56.792Z,101464.70
2018-06-28T14:27:25.896Z,101459.09
2018-06-28T14:29:54.960Z,101465.19
2018-06-28T14:32:24.265Z,101461.14
2018-06-28T14:34:53.328Z,101466.97
2018-06-28T14:37:22.425Z,101465.64
2018-06-28T14:39:51.489Z,101457.23
2018-06-28T14:42:20.568Z,101460.81
2018-06-28T14:44:49.705Z,101461.02
2018-06-28T14:47:18.812Z,101455.04
2018-06-28T14:49:47.824Z,101437.64
2018-06-28T14:52:16.947Z,101447.27
2018-06-28T14:54:46.036Z,101440.27
2018-06-28T14:57:15.113Z,101433.19
2018-06-28T14:59:44.357Z,101432.92
2018-06-28T15:02:13.432Z,101436.86
2018-06-28T15:04:42.660Z,101433.91
2018-06-28T15:07:13.253Z,101436.24
2018-06-28T15:09:42.384Z,101429.33
2018-06-28T15:12:11.657Z,101431.05
2018-06-28T15:14:40.757Z,101434.41
2018-06-28T15:17:11.746Z,101431.95
2018-06-28T15:19:41.028Z,101425.55
2018-06-28T15:22:10.168Z,101419.86
2018-06-28T15:24:39.656Z,101419.72
2018-06-28T15:27:08.732Z,101417.39
2018-06-28T15:29:37.950Z,101407.43
2018-06-28T15:32:07.165Z,101414.80
2018-06-28T15:34:36.820Z,101395.84
2018-06-28T15:37:06.448Z,101404.17
2018-06-28T15:39:35.764Z,101401.53
2018-06-28T15:42:04.926Z,101405.17
2018-06-28T15:44:34.020Z,101399.06
2018-06-28T15:47:03.096Z,101401.58
2018-06-28T15:49:32.371Z,101395.14
2018-06-28T15:52:01.510Z,101391.93
2018-06-28T15:54:30.589Z,101394.31
2018-06-28T15:56:59.657Z,101384.44
2018-06-28T15:59:28.781Z,101382.63
2018-06-28T16:01:57.857Z,101380.82
2018-06-28T16:04:26.960Z,101370.62
2018-06-28T16:06:56.032Z,101374.96
2018-06-28T16:09:25.129Z,101370.33
2018-06-28T16:11:54.209Z,101367.65
2018-06-28T16:14:23.300Z,101365.88
2018-06-28T16:16:52.392Z,101365.63
2018-06-28T16:19:21.529Z,101363.92
2018-06-28T16:21:50.601Z,101368.67
2018-06-28T16:24:19.788Z,101368.06
2018-06-28T16:26:48.877Z,101373.16
2018-06-28T16:29:17.960Z,101371.80
2018-06-28T16:31:47.059Z,101365.48
2018-06-28T16:34:16.124Z,101366.59
2018-06-28T16:36:45.213Z,101381.57
2018-06-28T16:39:14.327Z,101372.37
2018-06-28T16:41:43.376Z,101371.03
2018-06-28T16:44:12.448Z,101363.11
2018-06-28T16:46:41.628Z,101361.90
2018-06-28T16:49:10.624Z,101360.72
2018-06-28T16:51:39.712Z,101356.66
2018-06-28T16:54:08.816Z,101346.35
2018-06-28T16:56:37.921Z,101346.80
2018-06-28T16:59:07.000Z,101360.18
2018-06-28T17:01:36.288Z,101352.45
2018-06-28T17:04:05.452Z,101355.31
2018-06-28T17:06:34.565Z,101355.05
2018-06-28T17:09:04.024Z,101349.27
2018-06-28T17:11:33.128Z,101347.02
2018-06-28T17:14:02.885Z,101354.65
2018-06-28T17:16:31.984Z,101349.09
2018-06-28T17:19:01.064Z,101346.92
2018-06-28T17:21:30.180Z,101349.90
2018-06-28T17:23:59.276Z,101352.25
2018-06-28T17:26:28.384Z,101348.28
2018-06-28T17:28:57.460Z,101344.94
2018-06-28T17:31:26.593Z,101350.85
2018-06-28T17:33:55.876Z,101346.92
2018-06-28T17:36:24.956Z,101352.70
2018-06-28T17:38:54.909Z,101351.13
2018-06-28T17:41:24.179Z,101351.88
2018-06-28T17:43:53.279Z,101348.59
2018-06-28T17:46:22.355Z,101350.35
2018-06-28T17:48:51.477Z,101346.52
2018-06-28T17:51:20.556Z,101351.30
2018-06-28T17:53:49.764Z,101352.11
2018-06-28T17:56:18.860Z,101355.23
2018-06-28T17:58:47.952Z,101357.75
2018-06-28T18:01:17.029Z,101359.64
2018-06-28T18:03:46.998Z,101356.34
2018-06-28T18:06:16.068Z,101353.03
2018-06-28T18:08:45.262Z,101353.88
2018-06-28T18:11:14.324Z,101350.46
2018-06-28T18:13:43.429Z,101355.14
2018-06-28T18:16:12.512Z,101348.83
2018-06-28T18:18:41.608Z,101357.05
2018-06-28T18:21:10.688Z,101358.90
2018-06-28T18:23:39.786Z,101353.91
2018-06-28T18:26:08.879Z,101350.34
2018-06-28T18:28:39.949Z,101348.52
2018-06-28T18:31:09.025Z,101359.27
2018-06-28T18:33:38.116Z,101358.52
2018-06-28T18:36:07.197Z,101354.17
2018-06-28T18:38:36.301Z,101358.17
2018-06-28T18:41:05.577Z,101353.59
2018-06-28T18:43:34.672Z,101349.63
2018-06-28T18:46:03.816Z,101349.59
2018-06-28T18:48:32.936Z,101350.97
2018-06-28T18:51:02.013Z,101346.77
2018-06-28T18:53:31.188Z,101343.70
2018-06-28T18:56:00.816Z,101342.27
2018-06-28T18:58:30.188Z,101349.53
2018-06-28T19:01:00.170Z,101345.66
2018-06-28T19:03:29.235Z,101343.39
2018-06-28T19:05:58.336Z,101348.72
2018-06-28T19:08:27.468Z,101350.45
2018-06-28T19:10:57.528Z,101348.61
2018-06-28T19:13:27.628Z,101347.41
2018-06-28T19:16:02.170Z,101347.66
2018-06-28T19:18:31.260Z,101350.84
2018-06-28T19:21:05.796Z,101352.63
2018-06-28T19:23:40.343Z,101351.19
2018-06-28T19:26:09.454Z,101354.22
2018-06-28T19:28:38.532Z,101360.58
2018-06-28T19:31:13.064Z,101364.38
2018-06-28T19:33:42.152Z,101363.31
2018-06-28T19:36:11.245Z,101368.13
2018-06-28T19:38:45.740Z,101368.13
2018-06-28T19:41:20.317Z,101369.29
2018-06-28T19:43:49.384Z,101370.04
2018-06-28T19:46:18.517Z,101373.41
2018-06-28T19:48:48.052Z,101382.02
2018-06-28T19:51:22.441Z,101376.02
2018-06-28T19:53:51.513Z,101388.46
2018-06-28T19:56:20.636Z,101395.28
2018-06-28T19:58:49.712Z,101401.91
2018-06-28T20:01:24.148Z,101396.31
2018-06-28T20:03:58.517Z,101398.19
2018-06-28T20:06:27.692Z,101396.66
2018-06-28T20:08:56.831Z,101400.03
2018-06-28T20:11:26.718Z,101402.70
2018-06-28T20:14:01.500Z,101404.46
2018-06-28T20:16:36.012Z,101404.00
2018-06-28T20:19:10.460Z,101404.88
2018-06-28T20:21:39.755Z,101406.20
2018-06-28T20:24:08.847Z,101405.43
2018-06-28T20:26:43.209Z,101402.81
2018-06-28T20:29:17.523Z,101404.53
2018-06-28T20:31:52.012Z,101401.51
2018-06-28T20:34:21.132Z,101401.51
2018-06-28T20:36:50.273Z,101407.67
2018-06-28T20:39:19.359Z,101394.50
2018-06-28T20:41:48.456Z,101413.85
2018-06-28T20:44:17.524Z,101412.20
2018-06-28T20:46:46.608Z,101412.45
2018-06-28T20:49:15.675Z,101418.64
2018-06-28T20:51:44.768Z,101414.38
2018-06-28T20:54:13.834Z,101414.44
2018-06-28T20:56:42.936Z,101416.61
2018-06-28T20:59:12.048Z,101414.80
2018-06-28T21:01:41.215Z,101415.23
2018-06-28T21:04:10.392Z,101421.48
2018-06-28T21:06:39.495Z,101426.42
2018-06-28T21:09:08.596Z,101426.77
2018-06-28T21:11:37.730Z,101426.69
2018-06-28T21:14:06.883Z,101438.48
2018-06-28T21:16:36.018Z,101437.81
2018-06-28T21:19:05.213Z,101440.42
2018-06-28T21:21:34.376Z,101443.56
2018-06-28T21:24:03.548Z,101439.63
2018-06-28T21:26:32.633Z,101437.51
2018-06-28T21:29:01.892Z,101447.05
2018-06-28T21:31:30.980Z,101447.86
2018-06-28T21:34:00.099Z,101450.89
2018-06-28T21:36:29.224Z,101450.50
2018-06-28T21:38:58.403Z,101450.00
2018-06-28T21:41:27.619Z,101442.72
2018-06-28T21:43:56.709Z,101455.66
2018-06-28T21:46:25.836Z,101451.03
2018-06-28T21:48:55.000Z,101452.73
2018-06-28T21:51:24.112Z,101457.43
2018-06-28T21:53:53.316Z,101450.16
2018-06-28T21:56:22.444Z,101453.39
2018-06-28T21:58:51.659Z,101459.02
2018-06-28T22:01:20.745Z,101456.91
2018-06-28T22:03:49.920Z,101458.28
2018-06-28T22:06:19.235Z,101448.45
2018-06-28T22:08:48.330Z,101443.77
2018-06-28T22:11:17.444Z,101444.72
2018-06-28T22:13:46.592Z,101442.62
2018-06-28T22:16:15.672Z,101441.85
2018-06-28T22:18:44.840Z,101433.20
2018-06-28T22:21:13.976Z,101432.01
2018-06-28T22:23:43.180Z,101434.27
2018-06-28T22:26:12.299Z,101434.76
2018-06-28T22:28:41.420Z,101441.59
2018-06-28T22:31:11.337Z,101435.47
2018-06-28T22:33:40.404Z,101438.59
2018-06-28T22:36:09.511Z,101443.47
2018-06-28T22:38:38.592Z,101436.27
2018-06-28T22:41:07.683Z,101434.65
2018-06-28T22:43:36.764Z,101437.33
2018-06-28T22:46:05.864Z,101434.39
2018-06-28T22:48:35.465Z,101433.58
2018-06-28T22:51:04.544Z,101433.23
2018-06-28T22:53:33.636Z,101429.41
2018-06-28T22:56:02.737Z,101426.03
2018-06-28T22:58:31.804Z,101431.31
2018-06-28T23:01:00.917Z,101443.86
2018-06-28T23:03:29.992Z,101439.11
2018-06-28T23:05:59.084Z,101441.27
2018-06-28T23:08:28.991Z,101441.20
2018-06-28T23:10:58.148Z,101446.82
2018-06-28T23:13:27.555Z,101432.61
2018-06-28T23:15:56.650Z,101441.30
2018-06-28T23:18:25.733Z,101448.25
2018-06-28T23:20:54.820Z,101445.35
2018-06-28T23:23:23.893Z,101457.03
2018-06-28T23:25:52.975Z,101449.28
2018-06-28T23:28:22.057Z,101453.19
2018-06-28T23:30:51.150Z,101450.14
2018-06-28T23:33:20.216Z,101447.55
2018-06-28T23:35:49.300Z,101441.91
2018-06-28T23:38:18.364Z,101442.78
2018-06-28T23:40:47.481Z,101442.38
2018-06-28T23:43:16.544Z,101444.09
2018-06-28T23:45:45.607Z,101440.66
2018-06-28T23:48:14.697Z,101448.02
2018-06-28T23:50:43.771Z,101445.00
2018-06-28T23:53:12.864Z,101449.30
2018-06-28T23:55:41.944Z,101442.42
2018-06-28T23:58:11.032Z,101446.29
